sensor_id;sensor_type;location;lat;lon;timestamp;P1;durP1;ratioP1;P2;durP2;ratioP2
3943;SDS011;1986;52.546;13.428;2023-08-20T00:00:24;33.27;;;31.17;;
3943;SDS011;1986;52.546;13.428;2023-08-20T00:02:54;31.33;;;29.33;;
3943;SDS011;1986;52.546;13.428;2023-08-20T00:05:25;32.07;;;30.07;;
3943;SDS011;1986;52.546;13.428;2023-08-20T00:07:52;35.47;;;32.73;;
3943;SDS011;1986;52.546;13.428;2023-08-20T00:10:20;35.87;;;33.63;;
3943;SDS011;1986;52.546;13.428;2023-08-20T00:12:47;34.00;;;31.90;;
3943;SDS011;1986;52.546;13.428;2023-08-20T00:15:15;33.20;;;31.20;;
3943;SDS011;1986;52.546;13.428;2023-08-20T00:17:45;33.47;;;31.40;;
3943;SDS011;1986;52.546;13.428;2023-08-20T00:20:13;33.93;;;31.83;;
3943;SDS011;1986;52.546;13.428;2023-08-20T00:22:41;36.23;;;33.87;;
3943;SDS011;1986;52.546;13.428;2023-08-20T00:25:10;37.57;;;35.00;;
3943;SDS011;1986;52.546;13.428;2023-08-20T00:27:38;38.87;;;35.67;;
3943;SDS011;1986;52.546;13.428;2023-08-20T00:30:06;35.10;;;32.90;;
3943;SDS011;1986;52.546;13.428;2023-08-20T00:32:35;37.17;;;34.67;;
3943;SDS011;1986;52.546;13.428;2023-08-20T00:35:03;36.00;;;33.77;;
3943;SDS011;1986;52.546;13.428;2023-08-20T00:37:32;38.27;;;35.57;;
3943;SDS011;1986;52.546;13.428;2023-08-20T00:40:00;38.30;;;35.53;;
3943;SDS011;1986;52.546;13.428;2023-08-20T00:42:29;39.10;;;35.03;;
3943;SDS011;1986;52.546;13.428;2023-08-20T00:44:57;42.63;;;38.70;;
3943;SDS011;1986;52.546;13.428;2023-08-20T00:47:24;34.43;;;32.33;;
3943;SDS011;1986;52.546;13.428;2023-08-20T00:49:53;40.60;;;34.13;;
3943;SDS011;1986;52.546;13.428;2023-08-20T00:52:20;35.10;;;32.90;;
3943;SDS011;1986;52.546;13.428;2023-08-20T00:54:47;36.23;;;34.03;;
3943;SDS011;1986;52.546;13.428;2023-08-20T00:57:15;37.53;;;35.13;;
3943;SDS011;1986;52.546;13.428;2023-08-20T00:59:44;37.23;;;34.87;;
3943;SDS011;1986;52.546;13.428;2023-08-20T01:02:11;37.07;;;34.70;;
3943;SDS011;1986;52.546;13.428;2023-08-20T01:04:39;35.63;;;33.23;;
3943;SDS011;1986;52.546;13.428;2023-08-20T01:07:09;37.87;;;35.27;;
3943;SDS011;1986;52.546;13.428;2023-08-20T01:09:41;36.33;;;34.03;;
3943;SDS011;1986;52.546;13.428;2023-08-20T01:12:10;34.97;;;32.77;;
3943;SDS011;1986;52.546;13.428;2023-08-20T01:14:37;33.87;;;31.70;;
3943;SDS011;1986;52.546;13.428;2023-08-20T01:17:06;35.77;;;33.57;;
3943;SDS011;1986;52.546;13.428;2023-08-20T01:19:33;36.70;;;34.23;;
3943;SDS011;1986;52.546;13.428;2023-08-20T01:22:05;32.80;;;30.60;;
3943;SDS011;1986;52.546;13.428;2023-08-20T01:24:42;35.03;;;32.73;;
3943;SDS011;1986;52.546;13.428;2023-08-20T01:27:19;36.67;;;33.43;;
3943;SDS011;1986;52.546;13.428;2023-08-20T01:29:51;36.00;;;33.13;;
3943;SDS011;1986;52.546;13.428;2023-08-20T01:32:19;33.53;;;31.43;;
3943;SDS011;1986;52.546;13.428;2023-08-20T01:34:47;31.90;;;29.60;;
3943;SDS011;1986;52.546;13.428;2023-08-20T01:37:14;32.10;;;29.57;;
3943;SDS011;1986;52.546;13.428;2023-08-20T01:39:42;33.13;;;30.63;;
3943;SDS011;1986;52.546;13.428;2023-08-20T01:42:09;35.17;;;32.43;;
3943;SDS011;1986;52.546;13.428;2023-08-20T01:44:36;32.90;;;30.60;;
3943;SDS011;1986;52.546;13.428;2023-08-20T01:47:08;30.83;;;28.83;;
3943;SDS011;1986;52.546;13.428;2023-08-20T01:49:35;29.23;;;27.37;;
3943;SDS011;1986;52.546;13.428;2023-08-20T01:52:02;29.47;;;27.37;;
3943;SDS011;1986;52.546;13.428;2023-08-20T01:54:30;29.70;;;27.37;;
3943;SDS011;1986;52.546;13.428;2023-08-20T01:56:59;27.70;;;25.97;;
3943;SDS011;1986;52.546;13.428;2023-08-20T01:59:26;32.37;;;30.17;;
3943;SDS011;1986;52.546;13.428;2023-08-20T02:01:54;26.37;;;24.70;;
3943;SDS011;1986;52.546;13.428;2023-08-20T02:04:22;27.10;;;25.20;;
3943;SDS011;1986;52.546;13.428;2023-08-20T02:06:50;27.37;;;25.37;;
3943;SDS011;1986;52.546;13.428;2023-08-20T02:09:18;25.50;;;23.90;;
3943;SDS011;1986;52.546;13.428;2023-08-20T02:11:46;27.80;;;25.90;;
3943;SDS011;1986;52.546;13.428;2023-08-20T02:14:13;26.50;;;24.83;;
3943;SDS011;1986;52.546;13.428;2023-08-20T02:16:42;25.60;;;23.93;;
3943;SDS011;1986;52.546;13.428;2023-08-20T02:19:09;29.00;;;26.30;;
3943;SDS011;1986;52.546;13.428;2023-08-20T02:21:38;28.53;;;26.33;;
3943;SDS011;1986;52.546;13.428;2023-08-20T02:24:05;25.10;;;23.37;;
3943;SDS011;1986;52.546;13.428;2023-08-20T02:26:33;24.63;;;22.73;;
3943;SDS011;1986;52.546;13.428;2023-08-20T02:29:00;24.60;;;22.77;;
3943;SDS011;1986;52.546;13.428;2023-08-20T02:31:28;23.07;;;21.53;;
3943;SDS011;1986;52.546;13.428;2023-08-20T02:33:55;23.57;;;22.10;;
3943;SDS011;1986;52.546;13.428;2023-08-20T02:36:22;23.90;;;22.30;;
3943;SDS011;1986;52.546;13.428;2023-08-20T02:38:51;22.30;;;20.90;;
3943;SDS011;1986;52.546;13.428;2023-08-20T02:41:18;23.63;;;22.07;;
3943;SDS011;1986;52.546;13.428;2023-08-20T02:43:45;25.40;;;23.20;;
3943;SDS011;1986;52.546;13.428;2023-08-20T02:46:12;23.97;;;22.27;;
3943;SDS011;1986;52.546;13.428;2023-08-20T02:48:44;21.53;;;20.33;;
3943;SDS011;1986;52.546;13.428;2023-08-20T02:51:11;21.90;;;20.30;;
3943;SDS011;1986;52.546;13.428;2023-08-20T02:53:39;22.90;;;21.20;;
3943;SDS011;1986;52.546;13.428;2023-08-20T02:56:07;22.30;;;20.40;;
3943;SDS011;1986;52.546;13.428;2023-08-20T02:58:37;32.53;;;20.10;;
3943;SDS011;1986;52.546;13.428;2023-08-20T03:01:04;20.87;;;19.50;;
3943;SDS011;1986;52.546;13.428;2023-08-20T03:03:32;21.00;;;19.60;;
3943;SDS011;1986;52.546;13.428;2023-08-20T03:05:59;21.03;;;19.53;;
3943;SDS011;1986;52.546;13.428;2023-08-20T03:08:29;22.83;;;21.10;;
3943;SDS011;1986;52.546;13.428;2023-08-20T03:10:58;22.20;;;20.57;;
3943;SDS011;1986;52.546;13.428;2023-08-20T03:13:29;18.10;;;17.20;;
3943;SDS011;1986;52.546;13.428;2023-08-20T03:15:56;19.00;;;17.93;;
3943;SDS011;1986;52.546;13.428;2023-08-20T03:18:23;19.97;;;18.63;;
3943;SDS011;1986;52.546;13.428;2023-08-20T03:20:51;22.47;;;20.63;;
3943;SDS011;1986;52.546;13.428;2023-08-20T03:23:18;18.90;;;17.90;;
3943;SDS011;1986;52.546;13.428;2023-08-20T03:25:45;19.67;;;18.47;;
3943;SDS011;1986;52.546;13.428;2023-08-20T03:28:12;19.90;;;18.70;;
3943;SDS011;1986;52.546;13.428;2023-08-20T03:30:41;19.30;;;18.03;;
3943;SDS011;1986;52.546;13.428;2023-08-20T03:33:08;18.57;;;17.47;;
3943;SDS011;1986;52.546;13.428;2023-08-20T03:35:36;18.77;;;17.63;;
3943;SDS011;1986;52.546;13.428;2023-08-20T03:38:03;20.80;;;19.50;;
3943;SDS011;1986;52.546;13.428;2023-08-20T03:40:30;22.67;;;20.87;;
3943;SDS011;1986;52.546;13.428;2023-08-20T03:42:57;21.13;;;19.30;;
3943;SDS011;1986;52.546;13.428;2023-08-20T03:45:25;16.23;;;15.40;;
3943;SDS011;1986;52.546;13.428;2023-08-20T03:47:56;16.10;;;15.40;;
3943;SDS011;1986;52.546;13.428;2023-08-20T03:50:24;14.70;;;14.10;;
3943;SDS011;1986;52.546;13.428;2023-08-20T03:52:51;16.47;;;15.67;;
3943;SDS011;1986;52.546;13.428;2023-08-20T03:55:19;16.53;;;15.63;;
3943;SDS011;1986;52.546;13.428;2023-08-20T03:57:47;16.87;;;16.07;;
3943;SDS011;1986;52.546;13.428;2023-08-20T04:00:14;16.70;;;15.63;;
3943;SDS011;1986;52.546;13.428;2023-08-20T04:02:42;16.70;;;15.70;;
3943;SDS011;1986;52.546;13.428;2023-08-20T04:05:10;16.97;;;15.73;;
3943;SDS011;1986;52.546;13.428;2023-08-20T04:07:41;14.97;;;14.37;;
3943;SDS011;1986;52.546;13.428;2023-08-20T04:10:08;18.67;;;17.33;;
3943;SDS011;1986;52.546;13.428;2023-08-20T04:12:35;17.77;;;15.50;;
3943;SDS011;1986;52.546;13.428;2023-08-20T04:15:03;14.63;;;14.00;;
3943;SDS011;1986;52.546;13.428;2023-08-20T04:17:34;15.50;;;14.47;;
3943;SDS011;1986;52.546;13.428;2023-08-20T04:20:01;14.17;;;13.20;;
3943;SDS011;1986;52.546;13.428;2023-08-20T04:22:31;13.17;;;12.67;;
3943;SDS011;1986;52.546;13.428;2023-08-20T04:24:59;15.17;;;14.37;;
3943;SDS011;1986;52.546;13.428;2023-08-20T04:27:26;15.13;;;14.43;;
3943;SDS011;1986;52.546;13.428;2023-08-20T04:29:56;14.93;;;14.30;;
3943;SDS011;1986;52.546;13.428;2023-08-20T04:32:25;17.30;;;16.27;;
3943;SDS011;1986;52.546;13.428;2023-08-20T04:34:54;15.77;;;14.77;;
3943;SDS011;1986;52.546;13.428;2023-08-20T04:37:25;14.93;;;14.27;;
3943;SDS011;1986;52.546;13.428;2023-08-20T04:39:54;16.40;;;15.23;;
3943;SDS011;1986;52.546;13.428;2023-08-20T04:42:21;15.80;;;14.90;;
3943;SDS011;1986;52.546;13.428;2023-08-20T04:44:50;16.03;;;15.13;;
3943;SDS011;1986;52.546;13.428;2023-08-20T04:47:18;14.20;;;13.60;;
3943;SDS011;1986;52.546;13.428;2023-08-20T04:49:47;19.93;;;16.53;;
3943;SDS011;1986;52.546;13.428;2023-08-20T04:52:14;15.77;;;14.83;;
3943;SDS011;1986;52.546;13.428;2023-08-20T04:54:43;12.57;;;12.17;;
3943;SDS011;1986;52.546;13.428;2023-08-20T04:57:14;16.00;;;15.20;;
3943;SDS011;1986;52.546;13.428;2023-08-20T04:59:42;13.43;;;12.93;;
3943;SDS011;1986;52.546;13.428;2023-08-20T05:02:12;14.07;;;13.30;;
3943;SDS011;1986;52.546;13.428;2023-08-20T05:04:39;14.83;;;13.77;;
3943;SDS011;1986;52.546;13.428;2023-08-20T05:07:07;14.90;;;14.23;;
3943;SDS011;1986;52.546;13.428;2023-08-20T05:09:34;16.47;;;15.57;;
3943;SDS011;1986;52.546;13.428;2023-08-20T05:12:01;12.43;;;12.03;;
3943;SDS011;1986;52.546;13.428;2023-08-20T05:14:32;13.43;;;12.83;;
3943;SDS011;1986;52.546;13.428;2023-08-20T05:17:00;18.17;;;16.70;;
3943;SDS011;1986;52.546;13.428;2023-08-20T05:19:27;14.90;;;13.97;;
3943;SDS011;1986;52.546;13.428;2023-08-20T05:21:54;16.63;;;15.23;;
3943;SDS011;1986;52.546;13.428;2023-08-20T05:24:23;16.57;;;15.70;;
3943;SDS011;1986;52.546;13.428;2023-08-20T05:27:03;21.00;;;15.17;;
3943;SDS011;1986;52.546;13.428;2023-08-20T05:29:32;14.80;;;13.90;;
3943;SDS011;1986;52.546;13.428;2023-08-20T05:31:59;18.17;;;16.60;;
3943;SDS011;1986;52.546;13.428;2023-08-20T05:34:26;13.57;;;13.07;;
3943;SDS011;1986;52.546;13.428;2023-08-20T05:36:53;16.70;;;15.53;;
3943;SDS011;1986;52.546;13.428;2023-08-20T05:39:21;17.27;;;16.07;;
3943;SDS011;1986;52.546;13.428;2023-08-20T05:41:50;44.27;;;22.40;;
3943;SDS011;1986;52.546;13.428;2023-08-20T05:44:19;17.67;;;16.67;;
3943;SDS011;1986;52.546;13.428;2023-08-20T05:46:49;17.30;;;16.40;;
3943;SDS011;1986;52.546;13.428;2023-08-20T05:49:19;16.80;;;15.83;;
3943;SDS011;1986;52.546;13.428;2023-08-20T05:51:47;18.83;;;17.70;;
3943;SDS011;1986;52.546;13.428;2023-08-20T05:54:16;20.03;;;17.97;;
3943;SDS011;1986;52.546;13.428;2023-08-20T05:56:43;16.17;;;15.47;;
3943;SDS011;1986;52.546;13.428;2023-08-20T05:59:11;19.73;;;18.63;;
3943;SDS011;1986;52.546;13.428;2023-08-20T06:01:38;20.73;;;19.03;;
3943;SDS011;1986;52.546;13.428;2023-08-20T06:04:06;16.20;;;15.50;;
3943;SDS011;1986;52.546;13.428;2023-08-20T06:06:34;20.27;;;18.93;;
3943;SDS011;1986;52.546;13.428;2023-08-20T06:09:01;19.53;;;18.27;;
3943;SDS011;1986;52.546;13.428;2023-08-20T06:11:29;21.53;;;20.00;;
3943;SDS011;1986;52.546;13.428;2023-08-20T06:13:56;23.87;;;21.00;;
3943;SDS011;1986;52.546;13.428;2023-08-20T06:16:32;21.73;;;19.50;;
3943;SDS011;1986;52.546;13.428;2023-08-20T06:18:59;23.10;;;21.50;;
3943;SDS011;1986;52.546;13.428;2023-08-20T06:21:28;23.90;;;22.10;;
3943;SDS011;1986;52.546;13.428;2023-08-20T06:23:55;22.60;;;21.00;;
3943;SDS011;1986;52.546;13.428;2023-08-20T06:26:23;22.07;;;20.30;;
3943;SDS011;1986;52.546;13.428;2023-08-20T06:28:54;26.40;;;23.60;;
3943;SDS011;1986;52.546;13.428;2023-08-20T06:31:22;19.83;;;18.60;;
3943;SDS011;1986;52.546;13.428;2023-08-20T06:33:49;19.03;;;18.13;;
3943;SDS011;1986;52.546;13.428;2023-08-20T06:36:16;20.60;;;19.47;;
3943;SDS011;1986;52.546;13.428;2023-08-20T06:38:45;23.63;;;21.70;;
3943;SDS011;1986;52.546;13.428;2023-08-20T06:41:12;24.03;;;22.20;;
3943;SDS011;1986;52.546;13.428;2023-08-20T06:43:40;18.90;;;17.90;;
3943;SDS011;1986;52.546;13.428;2023-08-20T06:46:07;20.27;;;19.10;;
3943;SDS011;1986;52.546;13.428;2023-08-20T06:48:34;19.73;;;18.73;;
3943;SDS011;1986;52.546;13.428;2023-08-20T06:51:07;28.33;;;25.10;;
3943;SDS011;1986;52.546;13.428;2023-08-20T06:53:34;29.27;;;26.60;;
3943;SDS011;1986;52.546;13.428;2023-08-20T06:56:03;23.63;;;21.90;;
3943;SDS011;1986;52.546;13.428;2023-08-20T06:58:30;21.93;;;20.73;;
3943;SDS011;1986;52.546;13.428;2023-08-20T07:00:57;23.83;;;21.43;;
3943;SDS011;1986;52.546;13.428;2023-08-20T07:03:32;22.83;;;21.20;;
3943;SDS011;1986;52.546;13.428;2023-08-20T07:05:59;23.40;;;21.80;;
3943;SDS011;1986;52.546;13.428;2023-08-20T07:08:26;25.10;;;23.43;;
3943;SDS011;1986;52.546;13.428;2023-08-20T07:10:54;25.43;;;22.93;;
3943;SDS011;1986;52.546;13.428;2023-08-20T07:13:24;22.73;;;21.07;;
3943;SDS011;1986;52.546;13.428;2023-08-20T07:15:52;22.40;;;20.80;;
3943;SDS011;1986;52.546;13.428;2023-08-20T07:18:21;17.80;;;17.00;;
3943;SDS011;1986;52.546;13.428;2023-08-20T07:20:49;20.27;;;19.10;;
3943;SDS011;1986;52.546;13.428;2023-08-20T07:23:17;20.97;;;19.53;;
3943;SDS011;1986;52.546;13.428;2023-08-20T07:25:44;36.73;;;26.00;;
3943;SDS011;1986;52.546;13.428;2023-08-20T07:28:12;30.83;;;21.37;;
3943;SDS011;1986;52.546;13.428;2023-08-20T07:30:40;20.97;;;19.67;;
3943;SDS011;1986;52.546;13.428;2023-08-20T07:33:07;23.40;;;21.40;;
3943;SDS011;1986;52.546;13.428;2023-08-20T07:35:34;27.23;;;24.90;;
3943;SDS011;1986;52.546;13.428;2023-08-20T07:38:01;23.30;;;21.60;;
3943;SDS011;1986;52.546;13.428;2023-08-20T07:40:29;20.57;;;19.47;;
3943;SDS011;1986;52.546;13.428;2023-08-20T07:42:56;27.70;;;25.10;;
3943;SDS011;1986;52.546;13.428;2023-08-20T07:45:23;25.07;;;22.90;;
3943;SDS011;1986;52.546;13.428;2023-08-20T07:47:52;24.20;;;22.33;;
3943;SDS011;1986;52.546;13.428;2023-08-20T07:50:19;35.03;;;23.10;;
3943;SDS011;1986;52.546;13.428;2023-08-20T07:52:46;25.13;;;23.30;;
3943;SDS011;1986;52.546;13.428;2023-08-20T07:55:13;27.23;;;25.17;;
3943;SDS011;1986;52.546;13.428;2023-08-20T07:57:41;25.67;;;23.07;;
3943;SDS011;1986;52.546;13.428;2023-08-20T08:00:08;24.20;;;22.50;;
3943;SDS011;1986;52.546;13.428;2023-08-20T08:02:36;23.67;;;21.93;;
3943;SDS011;1986;52.546;13.428;2023-08-20T08:05:05;23.40;;;21.60;;
3943;SDS011;1986;52.546;13.428;2023-08-20T08:07:33;26.27;;;24.43;;
3943;SDS011;1986;52.546;13.428;2023-08-20T08:10:00;28.77;;;25.70;;
3943;SDS011;1986;52.546;13.428;2023-08-20T08:12:27;25.50;;;23.30;;
3943;SDS011;1986;52.546;13.428;2023-08-20T08:14:54;19.90;;;18.73;;
3943;SDS011;1986;52.546;13.428;2023-08-20T08:17:22;22.37;;;20.43;;
3943;SDS011;1986;52.546;13.428;2023-08-20T08:19:49;26.43;;;23.80;;
3943;SDS011;1986;52.546;13.428;2023-08-20T08:22:20;25.43;;;23.63;;
3943;SDS011;1986;52.546;13.428;2023-08-20T08:24:47;27.23;;;25.23;;
3943;SDS011;1986;52.546;13.428;2023-08-20T08:27:14;24.40;;;23.00;;
3943;SDS011;1986;52.546;13.428;2023-08-20T08:29:43;24.13;;;22.53;;
3943;SDS011;1986;52.546;13.428;2023-08-20T08:32:10;26.60;;;24.23;;
3943;SDS011;1986;52.546;13.428;2023-08-20T08:34:40;26.53;;;24.20;;
3943;SDS011;1986;52.546;13.428;2023-08-20T08:37:09;23.77;;;22.23;;
3943;SDS011;1986;52.546;13.428;2023-08-20T08:39:38;27.73;;;25.33;;
3943;SDS011;1986;52.546;13.428;2023-08-20T08:42:05;21.30;;;20.10;;
3943;SDS011;1986;52.546;13.428;2023-08-20T08:44:33;24.00;;;22.40;;
3943;SDS011;1986;52.546;13.428;2023-08-20T08:47:01;23.27;;;21.97;;
3943;SDS011;1986;52.546;13.428;2023-08-20T08:49:28;28.33;;;26.67;;
3943;SDS011;1986;52.546;13.428;2023-08-20T08:51:57;26.93;;;25.33;;
3943;SDS011;1986;52.546;13.428;2023-08-20T08:54:26;26.70;;;25.20;;
3943;SDS011;1986;52.546;13.428;2023-08-20T08:56:55;29.67;;;27.87;;
3943;SDS011;1986;52.546;13.428;2023-08-20T08:59:23;27.47;;;25.80;;
3943;SDS011;1986;52.546;13.428;2023-08-20T09:01:50;28.67;;;26.73;;
3943;SDS011;1986;52.546;13.428;2023-08-20T09:04:18;25.67;;;24.13;;
3943;SDS011;1986;52.546;13.428;2023-08-20T09:06:46;25.27;;;23.73;;
3943;SDS011;1986;52.546;13.428;2023-08-20T09:09:14;26.43;;;24.83;;
3943;SDS011;1986;52.546;13.428;2023-08-20T09:11:42;29.73;;;27.40;;
3943;SDS011;1986;52.546;13.428;2023-08-20T09:14:15;24.67;;;23.23;;
3943;SDS011;1986;52.546;13.428;2023-08-20T09:16:57;27.00;;;25.50;;
3943;SDS011;1986;52.546;13.428;2023-08-20T09:19:28;28.60;;;26.90;;
3943;SDS011;1986;52.546;13.428;2023-08-20T09:21:57;30.60;;;28.60;;
3943;SDS011;1986;52.546;13.428;2023-08-20T09:24:26;27.03;;;25.43;;
3943;SDS011;1986;52.546;13.428;2023-08-20T09:26:56;27.70;;;26.10;;
3943;SDS011;1986;52.546;13.428;2023-08-20T09:29:26;29.87;;;27.27;;
3943;SDS011;1986;52.546;13.428;2023-08-20T09:31:59;26.37;;;24.57;;
3943;SDS011;1986;52.546;13.428;2023-08-20T09:34:35;27.40;;;25.70;;
3943;SDS011;1986;52.546;13.428;2023-08-20T09:37:09;24.97;;;23.47;;
3943;SDS011;1986;52.546;13.428;2023-08-20T09:39:37;24.23;;;22.83;;
3943;SDS011;1986;52.546;13.428;2023-08-20T09:42:06;25.17;;;23.67;;
3943;SDS011;1986;52.546;13.428;2023-08-20T09:44:35;26.67;;;25.17;;
3943;SDS011;1986;52.546;13.428;2023-08-20T09:47:05;28.93;;;27.13;;
3943;SDS011;1986;52.546;13.428;2023-08-20T09:49:33;31.43;;;28.63;;
3943;SDS011;1986;52.546;13.428;2023-08-20T09:52:04;27.63;;;25.93;;
3943;SDS011;1986;52.546;13.428;2023-08-20T09:54:36;29.37;;;27.27;;
3943;SDS011;1986;52.546;13.428;2023-08-20T09:57:04;30.67;;;28.43;;
3943;SDS011;1986;52.546;13.428;2023-08-20T09:59:35;29.10;;;27.20;;
3943;SDS011;1986;52.546;13.428;2023-08-20T10:02:03;30.43;;;28.23;;
3943;SDS011;1986;52.546;13.428;2023-08-20T10:04:30;30.20;;;27.27;;
3943;SDS011;1986;52.546;13.428;2023-08-20T10:06:59;30.20;;;28.00;;
3943;SDS011;1986;52.546;13.428;2023-08-20T10:09:26;32.23;;;28.80;;
3943;SDS011;1986;52.546;13.428;2023-08-20T10:11:54;27.87;;;26.17;;
3943;SDS011;1986;52.546;13.428;2023-08-20T10:14:21;29.87;;;27.77;;
3943;SDS011;1986;52.546;13.428;2023-08-20T10:16:50;29.90;;;27.90;;
3943;SDS011;1986;52.546;13.428;2023-08-20T10:19:17;29.70;;;27.57;;
3943;SDS011;1986;52.546;13.428;2023-08-20T10:21:46;25.50;;;24.00;;
3943;SDS011;1986;52.546;13.428;2023-08-20T10:24:16;29.10;;;26.70;;
3943;SDS011;1986;52.546;13.428;2023-08-20T10:26:45;27.43;;;25.27;;
3943;SDS011;1986;52.546;13.428;2023-08-20T10:32:00;24.70;;;23.10;;
3943;SDS011;1986;52.546;13.428;2023-08-20T10:34:31;26.77;;;24.93;;
3943;SDS011;1986;52.546;13.428;2023-08-20T10:37:01;27.87;;;26.07;;
3943;SDS011;1986;52.546;13.428;2023-08-20T10:39:29;31.97;;;29.80;;
3943;SDS011;1986;52.546;13.428;2023-08-20T10:42:09;39.47;;;30.00;;
3943;SDS011;1986;52.546;13.428;2023-08-20T10:47:25;28.90;;;26.90;;
3943;SDS011;1986;52.546;13.428;2023-08-20T10:49:53;28.63;;;26.73;;
3943;SDS011;1986;52.546;13.428;2023-08-20T10:52:22;27.73;;;25.87;;
3943;SDS011;1986;52.546;13.428;2023-08-20T10:54:50;26.83;;;25.13;;
3943;SDS011;1986;52.546;13.428;2023-08-20T10:57:17;27.13;;;25.43;;
3943;SDS011;1986;52.546;13.428;2023-08-20T10:59:55;26.90;;;25.20;;
3943;SDS011;1986;52.546;13.428;2023-08-20T11:02:23;28.77;;;26.90;;
3943;SDS011;1986;52.546;13.428;2023-08-20T11:04:52;27.97;;;26.27;;
3943;SDS011;1986;52.546;13.428;2023-08-20T11:07:19;30.67;;;28.57;;
3943;SDS011;1986;52.546;13.428;2023-08-20T11:09:47;29.60;;;27.70;;
3943;SDS011;1986;52.546;13.428;2023-08-20T11:12:15;30.30;;;28.30;;
3943;SDS011;1986;52.546;13.428;2023-08-20T11:14:42;28.40;;;26.60;;
3943;SDS011;1986;52.546;13.428;2023-08-20T11:17:09;27.50;;;25.70;;
3943;SDS011;1986;52.546;13.428;2023-08-20T11:19:36;26.87;;;25.10;;
3943;SDS011;1986;52.546;13.428;2023-08-20T11:22:06;25.03;;;23.33;;
3943;SDS011;1986;52.546;13.428;2023-08-20T11:24:33;27.80;;;25.80;;
3943;SDS011;1986;52.546;13.428;2023-08-20T11:27:04;26.80;;;25.00;;
3943;SDS011;1986;52.546;13.428;2023-08-20T11:29:32;28.60;;;26.40;;
3943;SDS011;1986;52.546;13.428;2023-08-20T11:31:59;29.40;;;27.30;;
3943;SDS011;1986;52.546;13.428;2023-08-20T11:34:28;28.83;;;26.93;;
3943;SDS011;1986;52.546;13.428;2023-08-20T11:36:58;27.60;;;25.80;;
3943;SDS011;1986;52.546;13.428;2023-08-20T11:39:26;26.77;;;24.97;;
3943;SDS011;1986;52.546;13.428;2023-08-20T11:41:55;27.27;;;25.37;;
3943;SDS011;1986;52.546;13.428;2023-08-20T11:44:22;25.80;;;24.00;;
3943;SDS011;1986;52.546;13.428;2023-08-20T11:46:51;25.50;;;23.70;;
3943;SDS011;1986;52.546;13.428;2023-08-20T11:49:20;25.80;;;24.00;;
3943;SDS011;1986;52.546;13.428;2023-08-20T11:51:55;25.87;;;24.07;;
3943;SDS011;1986;52.546;13.428;2023-08-20T11:54:23;28.17;;;26.17;;
3943;SDS011;1986;52.546;13.428;2023-08-20T11:56:52;28.43;;;26.63;;
3943;SDS011;1986;52.546;13.428;2023-08-20T11:59:28;28.50;;;26.50;;
3943;SDS011;1986;52.546;13.428;2023-08-20T12:01:56;29.23;;;27.03;;
3943;SDS011;1986;52.546;13.428;2023-08-20T12:04:25;29.20;;;27.37;;
3943;SDS011;1986;52.546;13.428;2023-08-20T12:07:01;27.83;;;26.00;;
3943;SDS011;1986;52.546;13.428;2023-08-20T12:09:29;26.80;;;25.03;;
3943;SDS011;1986;52.546;13.428;2023-08-20T12:11:57;27.17;;;25.37;;
3943;SDS011;1986;52.546;13.428;2023-08-20T12:14:26;26.70;;;24.90;;
3943;SDS011;1986;52.546;13.428;2023-08-20T12:16:53;26.80;;;25.00;;
3943;SDS011;1986;52.546;13.428;2023-08-20T12:19:21;26.30;;;24.50;;
3943;SDS011;1986;52.546;13.428;2023-08-20T12:21:48;30.27;;;28.17;;
3943;SDS011;1986;52.546;13.428;2023-08-20T12:24:15;31.70;;;29.60;;
3943;SDS011;1986;52.546;13.428;2023-08-20T12:26:44;31.67;;;29.57;;
3943;SDS011;1986;52.546;13.428;2023-08-20T12:29:12;30.10;;;28.10;;
3943;SDS011;1986;52.546;13.428;2023-08-20T12:31:40;28.70;;;26.70;;
3943;SDS011;1986;52.546;13.428;2023-08-20T12:34:08;27.80;;;25.80;;
3943;SDS011;1986;52.546;13.428;2023-08-20T12:36:35;28.77;;;26.87;;
3943;SDS011;1986;52.546;13.428;2023-08-20T12:39:02;28.70;;;26.70;;
3943;SDS011;1986;52.546;13.428;2023-08-20T12:41:30;31.37;;;28.07;;
3943;SDS011;1986;52.546;13.428;2023-08-20T12:43:57;28.23;;;26.33;;
3943;SDS011;1986;52.546;13.428;2023-08-20T12:46:26;30.50;;;28.30;;
3943;SDS011;1986;52.546;13.428;2023-08-20T12:48:53;32.23;;;30.03;;
3943;SDS011;1986;52.546;13.428;2023-08-20T12:51:20;33.83;;;30.83;;
3943;SDS011;1986;52.546;13.428;2023-08-20T12:53:47;34.13;;;31.83;;
3943;SDS011;1986;52.546;13.428;2023-08-20T12:56:15;33.97;;;31.40;;
3943;SDS011;1986;52.546;13.428;2023-08-20T12:58:42;33.07;;;30.70;;
3943;SDS011;1986;52.546;13.428;2023-08-20T13:01:10;31.40;;;29.00;;
3943;SDS011;1986;52.546;13.428;2023-08-20T13:03:38;28.50;;;26.43;;
3943;SDS011;1986;52.546;13.428;2023-08-20T13:06:06;29.20;;;27.20;;
3943;SDS011;1986;52.546;13.428;2023-08-20T13:08:34;28.43;;;26.53;;
3943;SDS011;1986;52.546;13.428;2023-08-20T13:11:04;29.93;;;27.90;;
3943;SDS011;1986;52.546;13.428;2023-08-20T13:13:33;29.90;;;27.90;;
3943;SDS011;1986;52.546;13.428;2023-08-20T13:16:01;29.70;;;27.70;;
3943;SDS011;1986;52.546;13.428;2023-08-20T13:18:31;31.87;;;29.67;;
3943;SDS011;1986;52.546;13.428;2023-08-20T13:21:00;33.60;;;30.43;;
3943;SDS011;1986;52.546;13.428;2023-08-20T13:23:29;33.20;;;30.90;;
3943;SDS011;1986;52.546;13.428;2023-08-20T13:25:56;31.80;;;29.70;;
3943;SDS011;1986;52.546;13.428;2023-08-20T13:28:23;29.67;;;27.67;;
3943;SDS011;1986;52.546;13.428;2023-08-20T13:30:50;32.70;;;30.40;;
3943;SDS011;1986;52.546;13.428;2023-08-20T13:33:17;30.50;;;28.40;;
3943;SDS011;1986;52.546;13.428;2023-08-20T13:35:45;30.50;;;28.30;;
3943;SDS011;1986;52.546;13.428;2023-08-20T13:38:13;30.30;;;28.10;;
3943;SDS011;1986;52.546;13.428;2023-08-20T13:40:40;31.30;;;29.10;;
3943;SDS011;1986;52.546;13.428;2023-08-20T13:43:09;30.90;;;28.70;;
3943;SDS011;1986;52.546;13.428;2023-08-20T13:45:37;32.70;;;30.40;;
3943;SDS011;1986;52.546;13.428;2023-08-20T13:48:04;34.80;;;32.00;;
3943;SDS011;1986;52.546;13.428;2023-08-20T13:50:32;34.20;;;31.80;;
3943;SDS011;1986;52.546;13.428;2023-08-20T13:53:00;34.03;;;31.67;;
3943;SDS011;1986;52.546;13.428;2023-08-20T13:55:29;35.40;;;32.90;;
3943;SDS011;1986;52.546;13.428;2023-08-20T13:57:56;56.67;;;33.97;;
3943;SDS011;1986;52.546;13.428;2023-08-20T14:00:24;36.07;;;33.40;;
3943;SDS011;1986;52.546;13.428;2023-08-20T14:02:51;34.50;;;32.00;;
3943;SDS011;1986;52.546;13.428;2023-08-20T14:05:19;35.50;;;32.90;;
3943;SDS011;1986;52.546;13.428;2023-08-20T14:07:46;34.60;;;32.20;;
3943;SDS011;1986;52.546;13.428;2023-08-20T14:10:13;32.90;;;30.50;;
3943;SDS011;1986;52.546;13.428;2023-08-20T14:12:42;32.10;;;29.80;;
3943;SDS011;1986;52.546;13.428;2023-08-20T14:15:09;33.50;;;31.10;;
3943;SDS011;1986;52.546;13.428;2023-08-20T14:17:37;35.03;;;32.43;;
3943;SDS011;1986;52.546;13.428;2023-08-20T14:20:05;39.90;;;37.20;;
3943;SDS011;1986;52.546;13.428;2023-08-20T14:22:33;37.40;;;34.90;;
3943;SDS011;1986;52.546;13.428;2023-08-20T14:25:00;37.20;;;34.60;;
3943;SDS011;1986;52.546;13.428;2023-08-20T14:27:32;36.37;;;33.77;;
3943;SDS011;1986;52.546;13.428;2023-08-20T14:30:00;35.00;;;32.60;;
3943;SDS011;1986;52.546;13.428;2023-08-20T14:32:28;36.13;;;33.63;;
3943;SDS011;1986;52.546;13.428;2023-08-20T14:34:55;32.87;;;30.57;;
3943;SDS011;1986;52.546;13.428;2023-08-20T14:37:22;33.20;;;30.90;;
3943;SDS011;1986;52.546;13.428;2023-08-20T14:39:49;32.70;;;30.40;;
3943;SDS011;1986;52.546;13.428;2023-08-20T14:42:16;33.67;;;31.17;;
3943;SDS011;1986;52.546;13.428;2023-08-20T14:44:44;33.00;;;30.60;;